createdAt,value
2019-03-15T00:03:01.892Z,46.40
2019-03-15T00:09:06.712Z,46.40
2019-03-15T00:15:09.438Z,46.50
2019-03-15T00:21:12.199Z,47.10
2019-03-15T00:27:15.001Z,46.40
2019-03-15T00:33:17.728Z,46.40
2019-03-15T00:39:20.451Z,46.40
2019-03-15T00:45:23.186Z,46.50
2019-03-15T00:51:25.911Z,46.40
2019-03-15T00:57:28.638Z,46.40
2019-03-15T01:03:31.360Z,46.40
2019-03-15T01:09:34.087Z,46.40
2019-03-15T01:15:36.795Z,46.50
2019-03-15T01:21:39.539Z,46.50
2019-03-15T01:27:42.346Z,46.40
2019-03-15T01:33:45.064Z,46.40
2019-03-15T01:39:47.792Z,46.40
2019-03-15T01:45:50.684Z,46.90
2019-03-15T01:51:53.424Z,46.40
2019-03-15T01:57:56.291Z,46.40
2019-03-15T02:03:59.372Z,47.00
2019-03-15T02:10:02.363Z,46.40
2019-03-15T02:16:05.104Z,46.20
2019-03-15T02:22:08.425Z,46.30
2019-03-15T02:28:11.596Z,46.30
2019-03-15T02:34:14.320Z,46.30
2019-03-15T02:40:17.043Z,46.30
2019-03-15T02:46:19.767Z,46.30
2019-03-15T02:52:22.740Z,46.30
2019-03-15T02:58:25.461Z,46.30
2019-03-15T03:04:28.194Z,46.20
2019-03-15T03:10:30.928Z,46.20
2019-03-15T03:16:33.644Z,46.30
2019-03-15T03:22:36.652Z,46.20
2019-03-15T03:28:39.487Z,46.10
2019-03-15T03:34:42.234Z,46.10
2019-03-15T03:40:45.016Z,46.10
2019-03-15T03:46:47.770Z,46.00
2019-03-15T03:52:50.484Z,46.00
2019-03-15T03:58:53.209Z,46.00
2019-03-15T04:04:55.932Z,46.00
2019-03-15T04:11:18.083Z,46.00
2019-03-15T04:17:19.936Z,46.00
2019-03-15T04:23:22.668Z,46.20
2019-03-15T04:29:25.401Z,46.10
2019-03-15T04:35:28.152Z,46.30
2019-03-15T04:41:30.897Z,46.10
2019-03-15T04:47:33.628Z,46.40
2019-03-15T04:53:36.355Z,46.50
2019-03-15T04:59:39.076Z,46.60
2019-03-15T05:05:41.804Z,46.60
2019-03-15T05:11:44.529Z,46.60
2019-03-15T05:17:47.507Z,46.50
2019-03-15T05:23:50.247Z,46.50
2019-03-15T05:29:52.975Z,46.60
2019-03-15T05:35:55.712Z,46.50
2019-03-15T05:41:58.448Z,46.50
2019-03-15T05:48:01.167Z,46.50
2019-03-15T05:54:03.901Z,46.40
2019-03-15T06:00:11.880Z,46.60
2019-03-15T06:06:14.644Z,46.40
2019-03-15T06:12:19.186Z,46.30
2019-03-15T06:18:21.915Z,46.30
2019-03-15T06:24:24.908Z,46.20
2019-03-15T06:30:27.922Z,46.30
2019-03-15T06:36:30.654Z,46.30
2019-03-15T06:42:33.386Z,46.30
2019-03-15T06:48:36.104Z,46.30
2019-03-15T06:54:38.830Z,46.30
2019-03-15T07:00:41.548Z,46.30
2019-03-15T07:06:44.311Z,46.30
2019-03-15T07:12:47.035Z,46.30
2019-03-15T07:18:50.168Z,46.40
2019-03-15T07:24:52.894Z,46.40
2019-03-15T07:30:55.636Z,46.50
2019-03-15T07:36:58.384Z,46.50
2019-03-15T07:43:04.559Z,47.30
2019-03-15T07:49:05.836Z,46.60
2019-03-15T07:55:08.800Z,46.60
2019-03-15T08:01:11.524Z,46.50
2019-03-15T08:07:14.248Z,46.50
2019-03-15T08:13:17.001Z,46.60
2019-03-15T08:19:19.782Z,46.40
2019-03-15T08:25:22.503Z,46.40
2019-03-15T08:31:25.232Z,46.50
2019-03-15T08:37:27.963Z,46.50
2019-03-15T08:43:30.696Z,46.50
2019-03-15T08:49:33.433Z,46.50
2019-03-15T08:55:36.215Z,46.60
2019-03-15T09:01:38.954Z,46.70
2019-03-15T09:07:41.679Z,46.60
2019-03-15T09:13:44.404Z,46.70
2019-03-15T09:19:47.136Z,46.70
2019-03-15T09:25:49.861Z,46.70
2019-03-15T09:32:04.757Z,46.80
2019-03-15T09:37:57.036Z,46.70
2019-03-15T09:43:59.769Z,46.80
2019-03-15T09:50:02.496Z,46.80
2019-03-15T09:56:05.220Z,46.80
2019-03-15T10:02:08.127Z,46.80
2019-03-15T10:08:11.068Z,46.80
2019-03-15T10:14:15.033Z,46.90
2019-03-15T10:20:17.803Z,47.00
2019-03-15T10:26:20.535Z,47.00
2019-03-15T10:32:23.270Z,47.00
2019-03-15T10:38:26.012Z,46.90
2019-03-15T10:44:28.737Z,46.80
2019-03-15T10:50:31.628Z,47.00
2019-03-15T10:56:34.340Z,47.00
2019-03-15T11:02:37.384Z,46.90
2019-03-15T11:08:40.127Z,46.90
2019-03-15T11:14:43.096Z,47.00
2019-03-15T11:20:45.822Z,47.00
2019-03-15T11:26:48.648Z,47.00
2019-03-15T11:32:51.372Z,47.00
2019-03-15T11:38:54.100Z,47.00
2019-03-15T11:44:56.864Z,47.30
2019-03-15T11:50:59.587Z,47.30
2019-03-15T11:57:02.316Z,47.20
2019-03-15T12:03:05.044Z,47.20
2019-03-15T12:09:07.828Z,47.20
2019-03-15T12:15:14.707Z,47.20
2019-03-15T12:21:17.440Z,47.20
2019-03-15T12:27:20.460Z,47.30
2019-03-15T12:33:23.185Z,47.20
2019-03-15T12:39:25.921Z,47.20
2019-03-15T12:45:28.644Z,47.30
2019-03-15T12:51:33.018Z,47.20
2019-03-15T12:57:35.784Z,47.30
2019-03-15T13:03:38.848Z,47.30
2019-03-15T13:09:41.573Z,47.20
2019-03-15T13:15:44.384Z,47.20
2019-03-15T13:21:47.196Z,47.20
2019-03-15T13:27:50.016Z,47.30
2019-03-15T13:33:52.824Z,47.30
2019-03-15T13:39:55.556Z,47.30
2019-03-15T13:45:58.285Z,47.40
2019-03-15T13:52:01.008Z,47.30
2019-03-15T13:58:03.731Z,47.40
2019-03-15T14:04:06.528Z,47.40
2019-03-15T14:10:13.895Z,47.30
2019-03-15T14:16:16.679Z,47.30
2019-03-15T14:22:19.395Z,47.40
2019-03-15T14:28:22.140Z,47.50
2019-03-15T14:34:24.867Z,47.40
2019-03-15T14:40:27.651Z,47.50
2019-03-15T14:46:30.435Z,47.50
2019-03-15T14:52:33.160Z,47.50
2019-03-15T14:58:35.898Z,47.50
2019-03-15T15:04:38.624Z,47.60
2019-03-15T15:10:41.366Z,47.50
2019-03-15T15:16:44.374Z,47.60
2019-03-15T15:22:47.107Z,47.60
2019-03-15T15:28:49.837Z,47.60
2019-03-15T15:34:52.543Z,47.60
2019-03-15T15:40:55.288Z,47.60
2019-03-15T15:46:58.096Z,47.70
2019-03-15T15:53:00.811Z,47.60
2019-03-15T15:59:03.637Z,47.60
2019-03-15T16:05:08.713Z,47.60
2019-03-15T16:11:11.612Z,47.60
2019-03-15T16:17:14.353Z,47.60
2019-03-15T16:23:36.491Z,47.60
2019-03-15T16:29:39.211Z,47.70
2019-03-15T16:35:41.948Z,47.60
2019-03-15T16:41:44.976Z,47.70
2019-03-15T16:47:47.703Z,47.60
2019-03-15T16:53:50.432Z,47.60
2019-03-15T16:59:53.159Z,47.60
2019-03-15T17:05:55.907Z,47.70
2019-03-15T17:12:18.054Z,47.70
2019-03-15T17:18:20.785Z,47.60
2019-03-15T17:24:23.602Z,47.70
2019-03-15T17:30:26.347Z,47.70
2019-03-15T17:36:29.077Z,47.70
2019-03-15T17:42:32.178Z,47.80
2019-03-15T17:48:34.911Z,47.70
2019-03-15T17:54:37.632Z,47.70
2019-03-15T18:00:45.843Z,47.70
2019-03-15T18:06:48.572Z,47.80
2019-03-15T18:12:52.370Z,47.80
2019-03-15T18:18:55.220Z,48.00
2019-03-15T18:24:57.948Z,47.90
2019-03-15T18:31:00.920Z,48.00
2019-03-15T18:37:03.664Z,47.90
2019-03-15T18:43:06.396Z,47.90
2019-03-15T18:49:09.124Z,47.90
2019-03-15T18:55:11.851Z,47.90
2019-03-15T19:01:34.195Z,48.00
2019-03-15T19:07:36.999Z,47.90
2019-03-15T19:13:39.723Z,48.00
2019-03-15T19:19:42.552Z,48.00
2019-03-15T19:25:45.583Z,48.00
2019-03-15T19:31:48.324Z,48.00
2019-03-15T19:37:51.395Z,48.00
2019-03-15T19:43:54.129Z,48.00
2019-03-15T19:49:56.856Z,48.00
2019-03-15T19:55:59.579Z,47.90
2019-03-15T20:02:02.351Z,47.90
2019-03-15T20:08:05.236Z,48.70
2019-03-15T20:14:08.031Z,48.00
2019-03-15T20:20:19.155Z,48.00
2019-03-15T20:26:21.875Z,48.00
2019-03-15T20:32:24.603Z,48.10
2019-03-15T20:38:27.328Z,48.10
2019-03-15T20:44:30.082Z,48.20
2019-03-15T20:50:45.876Z,48.10
2019-03-15T20:56:37.381Z,48.00
2019-03-15T21:02:40.160Z,48.00
2019-03-15T21:08:42.882Z,48.10
2019-03-15T21:14:45.610Z,48.00
2019-03-15T21:20:48.352Z,48.20
2019-03-15T21:26:51.177Z,48.10
2019-03-15T21:32:53.901Z,48.10
2019-03-15T21:38:56.625Z,48.10
2019-03-15T21:44:59.592Z,48.10
2019-03-15T21:51:02.335Z,48.00
2019-03-15T21:57:05.063Z,48.00
2019-03-15T22:03:07.824Z,48.00
2019-03-15T22:09:10.614Z,48.00
2019-03-15T22:15:13.341Z,48.00
2019-03-15T22:21:35.582Z,47.90
2019-03-15T22:27:38.299Z,47.90
2019-03-15T22:33:41.374Z,47.90
2019-03-15T22:39:44.100Z,48.00
2019-03-15T22:45:46.832Z,47.90
2019-03-15T22:51:49.616Z,47.90
2019-03-15T22:57:59.649Z,48.00
2019-03-15T23:03:56.805Z,47.90
2019-03-15T23:09:59.832Z,48.00
2019-03-15T23:16:02.580Z,48.00
2019-03-15T23:22:05.651Z,47.90
2019-03-15T23:28:08.427Z,48.00
2019-03-15T23:34:11.416Z,47.90
2019-03-15T23:40:14.164Z,48.00
2019-03-15T23:46:16.964Z,48.60
2019-03-15T23:52:19.768Z,47.90
2019-03-15T23:58:22.500Z,47.80
